createdAt,value
2024-02-02T00:01:34.607Z,73.38
2024-02-02T00:04:01.390Z,72.78
2024-02-02T00:06:28.150Z,73.78
2024-02-02T00:08:54.930Z,73.78
2024-02-02T00:11:21.942Z,73.66
2024-02-02T00:13:48.598Z,73.80
2024-02-02T00:16:15.317Z,74.51
2024-02-02T00:18:42.068Z,73.89
2024-02-02T00:21:08.871Z,74.26
2024-02-02T00:23:35.542Z,75.09
2024-02-02T00:26:02.447Z,74.98
2024-02-02T00:28:29.209Z,75.08
2024-02-02T00:30:55.914Z,74.32
2024-02-02T00:33:22.770Z,74.91
2024-02-02T00:35:49.925Z,75.14
2024-02-02T00:38:16.631Z,74.76
2024-02-02T00:40:43.417Z,74.40
2024-02-02T00:43:10.025Z,74.99
2024-02-02T00:45:37.082Z,74.20
2024-02-02T00:48:04.612Z,74.92
2024-02-02T00:50:32.624Z,74.50
2024-02-02T00:52:59.275Z,74.27
2024-02-02T00:55:25.994Z,74.78
2024-02-02T00:57:52.630Z,74.74
2024-02-02T01:00:19.486Z,74.71
2024-02-02T01:02:46.293Z,75.42
2024-02-02T01:05:14.914Z,75.40
2024-02-02T01:07:41.636Z,74.58
2024-02-02T01:10:11.918Z,74.75
2024-02-02T01:12:38.709Z,75.76
2024-02-02T01:15:06.039Z,75.53
2024-02-02T01:17:32.707Z,75.25
2024-02-02T01:20:04.512Z,76.00
2024-02-02T01:22:31.861Z,76.10
2024-02-02T01:24:58.478Z,75.84
2024-02-02T01:27:25.536Z,76.42
2024-02-02T01:29:52.304Z,75.36
2024-02-02T01:32:19.085Z,75.50
2024-02-02T01:34:47.188Z,75.75
2024-02-02T01:37:14.388Z,75.82
2024-02-02T01:39:41.082Z,76.27
2024-02-02T01:42:07.837Z,75.40
2024-02-02T01:44:34.525Z,75.94
2024-02-02T01:47:01.374Z,77.05
2024-02-02T01:49:28.314Z,76.06
2024-02-02T01:51:55.847Z,76.23
2024-02-02T01:54:22.642Z,75.95
2024-02-02T01:56:49.785Z,77.02
2024-02-02T01:59:16.546Z,77.12
2024-02-02T02:01:43.342Z,77.37
2024-02-02T02:04:10.192Z,76.60
2024-02-02T02:06:37.121Z,76.42
2024-02-02T02:09:03.905Z,76.38
2024-02-02T02:11:30.861Z,76.73
2024-02-02T02:13:57.577Z,76.90
2024-02-02T02:16:25.625Z,76.18
2024-02-02T02:18:56.579Z,76.66
2024-02-02T02:21:30.204Z,76.66
2024-02-02T02:23:57.475Z,76.60
2024-02-02T02:26:24.836Z,76.99
2024-02-02T02:28:51.570Z,77.19
2024-02-02T02:31:18.734Z,77.53
2024-02-02T02:33:46.447Z,78.01
2024-02-02T02:36:15.283Z,77.93
2024-02-02T02:38:44.570Z,77.45
2024-02-02T02:41:11.365Z,78.31
2024-02-02T02:43:38.024Z,78.41
2024-02-02T02:46:05.048Z,78.65
2024-02-02T02:48:31.911Z,78.11
2024-02-02T02:50:58.894Z,78.63
2024-02-02T02:53:25.655Z,78.58
2024-02-02T02:55:52.550Z,78.65
2024-02-02T02:58:19.766Z,78.54
2024-02-02T03:00:46.530Z,79.58
2024-02-02T03:03:13.323Z,78.71
2024-02-02T03:05:40.370Z,78.87
2024-02-02T03:08:08.176Z,79.33
2024-02-02T03:10:35.355Z,80.01
2024-02-02T03:13:02.339Z,79.64
2024-02-02T03:15:32.997Z,78.95
2024-02-02T03:17:59.986Z,79.38
2024-02-02T03:20:30.023Z,79.74
2024-02-02T03:22:57.009Z,79.93
2024-02-02T03:25:23.709Z,80.73
2024-02-02T03:27:50.440Z,80.36
2024-02-02T03:30:17.290Z,79.92
2024-02-02T03:32:45.706Z,79.95
2024-02-02T03:35:13.850Z,80.87
2024-02-02T03:37:40.617Z,81.23
2024-02-02T03:40:07.877Z,81.02
2024-02-02T03:42:35.585Z,81.15
2024-02-02T03:45:02.525Z,81.00
2024-02-02T03:47:29.486Z,81.50
2024-02-02T03:49:56.485Z,81.57
2024-02-02T03:52:24.847Z,81.28
2024-02-02T03:54:52.276Z,82.49
2024-02-02T03:57:19.552Z,82.71
2024-02-02T03:59:46.478Z,83.14
2024-02-02T04:02:13.660Z,82.51
2024-02-02T04:04:40.605Z,83.59
2024-02-02T04:07:07.410Z,83.29
2024-02-02T04:09:34.212Z,83.91
2024-02-02T04:12:01.093Z,83.75
2024-02-02T04:14:27.813Z,83.45
2024-02-02T04:16:54.504Z,84.27
2024-02-02T04:19:22.498Z,84.66
2024-02-02T04:21:49.767Z,85.23
2024-02-02T04:24:16.580Z,85.14
2024-02-02T04:26:43.366Z,85.22
2024-02-02T04:29:10.466Z,86.10
2024-02-02T04:31:37.153Z,86.46
2024-02-02T04:34:03.999Z,86.10
2024-02-02T04:36:31.750Z,86.67
2024-02-02T04:38:58.764Z,85.98
2024-02-02T04:41:26.217Z,87.05
2024-02-02T04:43:52.891Z,87.45
2024-02-02T04:46:19.623Z,87.68
2024-02-02T04:48:46.537Z,87.25
2024-02-02T04:51:13.377Z,87.26
2024-02-02T04:53:40.050Z,87.41
2024-02-02T04:56:06.830Z,87.65
2024-02-02T04:58:33.525Z,88.33
2024-02-02T05:01:00.236Z,88.17
2024-02-02T05:03:27.098Z,88.02
2024-02-02T05:05:54.163Z,89.00
2024-02-02T05:08:21.545Z,88.71
2024-02-02T05:10:48.317Z,89.08
2024-02-02T05:13:15.211Z,88.57
2024-02-02T05:15:42.227Z,89.26
2024-02-02T05:18:09.665Z,89.63
2024-02-02T05:20:36.478Z,89.59
2024-02-02T05:23:03.248Z,89.69
2024-02-02T05:25:29.950Z,89.73
2024-02-02T05:27:56.689Z,90.21
2024-02-02T05:30:23.464Z,90.65
2024-02-02T05:32:50.305Z,89.90
2024-02-02T05:35:18.482Z,90.40
2024-02-02T05:37:45.099Z,90.14
2024-02-02T05:40:12.033Z,90.12
2024-02-02T05:42:38.816Z,90.38
2024-02-02T05:45:06.574Z,90.59
2024-02-02T05:47:33.366Z,90.60
2024-02-02T05:50:00.062Z,90.74
2024-02-02T05:52:26.754Z,91.46
2024-02-02T05:54:53.430Z,91.45
2024-02-02T05:57:20.124Z,90.93
2024-02-02T05:59:46.930Z,91.55
2024-02-02T06:02:13.597Z,91.38
2024-02-02T06:04:40.420Z,91.83
2024-02-02T06:07:07.351Z,91.35
2024-02-02T06:09:34.288Z,91.69
2024-02-02T06:12:01.052Z,91.49
2024-02-02T06:14:29.010Z,91.40
2024-02-02T06:16:55.704Z,92.14
2024-02-02T06:19:22.560Z,92.33
2024-02-02T06:21:49.283Z,92.29
2024-02-02T06:24:16.058Z,92.36
2024-02-02T06:26:42.761Z,92.39
2024-02-02T06:29:09.459Z,92.71
2024-02-02T06:31:36.096Z,92.39
2024-02-02T06:34:02.858Z,92.79
2024-02-02T06:36:29.860Z,92.69
2024-02-02T06:38:59.281Z,92.85
2024-02-02T06:41:26.033Z,92.84
2024-02-02T06:43:52.793Z,93.02
2024-02-02T06:46:19.785Z,93.13
2024-02-02T06:48:47.319Z,93.20
2024-02-02T06:51:14.094Z,92.97
2024-02-02T06:53:41.088Z,92.91
2024-02-02T06:56:28.494Z,92.92
2024-02-02T06:58:55.459Z,92.78
2024-02-02T07:01:22.306Z,92.91
2024-02-02T07:03:49.721Z,92.64
2024-02-02T07:06:16.995Z,92.55
2024-02-02T07:08:43.679Z,92.62
2024-02-02T07:11:13.378Z,92.97
2024-02-02T07:13:49.547Z,92.68
2024-02-02T07:16:37.243Z,92.60
2024-02-02T07:19:04.385Z,92.74
2024-02-02T07:21:32.769Z,92.33
2024-02-02T07:24:00.408Z,92.11
2024-02-02T07:26:29.661Z,91.62
2024-02-02T07:28:57.280Z,92.23
2024-02-02T07:31:35.881Z,92.74
2024-02-02T07:34:12.048Z,92.35
2024-02-02T07:36:39.110Z,92.33
2024-02-02T07:39:31.609Z,92.76
2024-02-02T07:41:59.313Z,92.36
2024-02-02T07:44:26.387Z,92.06
2024-02-02T07:46:53.991Z,92.53
2024-02-02T07:49:20.752Z,92.24
2024-02-02T07:51:47.514Z,92.28
2024-02-02T07:54:14.372Z,92.07
2024-02-02T07:56:41.215Z,92.25
2024-02-02T07:59:07.889Z,91.95
2024-02-02T08:01:40.429Z,91.95
2024-02-02T08:04:07.278Z,92.55
2024-02-02T08:06:34.053Z,92.57
2024-02-02T08:09:00.941Z,92.33
2024-02-02T08:11:31.011Z,91.89
2024-02-02T08:13:57.837Z,92.16
2024-02-02T08:16:24.637Z,92.18
2024-02-02T08:18:51.627Z,92.27
2024-02-02T08:21:18.436Z,92.37
2024-02-02T08:23:45.220Z,92.33
2024-02-02T08:26:11.910Z,91.99
2024-02-02T08:28:48.463Z,92.03
2024-02-02T08:31:18.596Z,92.37
2024-02-02T08:33:45.536Z,92.49
2024-02-02T08:36:12.476Z,92.22
2024-02-02T08:38:39.386Z,91.92
2024-02-02T08:41:06.451Z,92.34
2024-02-02T08:43:33.876Z,91.87
2024-02-02T08:46:16.501Z,92.59
2024-02-02T08:48:45.891Z,91.79
2024-02-02T08:51:47.215Z,92.58
2024-02-02T08:54:16.788Z,92.42
2024-02-02T08:56:47.659Z,92.21
2024-02-02T08:59:34.133Z,92.44
2024-02-02T09:02:06.184Z,92.35
2024-02-02T09:04:56.858Z,92.55
2024-02-02T09:07:23.710Z,91.62
2024-02-02T09:09:50.470Z,91.94
2024-02-02T09:12:17.274Z,92.04
2024-02-02T09:14:45.562Z,92.22
2024-02-02T09:17:13.851Z,92.20
2024-02-02T09:19:42.492Z,92.28
2024-02-02T09:22:19.239Z,91.18
2024-02-02T09:24:52.288Z,90.58
2024-02-02T09:27:19.005Z,90.52
2024-02-02T09:29:48.372Z,90.23
2024-02-02T09:32:18.539Z,90.24
2024-02-02T09:34:46.571Z,90.11
2024-02-02T09:37:27.292Z,89.97
2024-02-02T09:39:56.381Z,88.56
2024-02-02T09:42:30.397Z,88.15
2024-02-02T09:45:35.562Z,87.74
2024-02-02T09:48:24.556Z,85.16
2024-02-02T09:51:11.790Z,85.16
2024-02-02T09:54:14.573Z,83.56
2024-02-02T09:56:59.504Z,83.07
2024-02-02T09:59:44.749Z,82.34
2024-02-02T10:02:34.407Z,82.03
2024-02-02T10:05:08.450Z,81.53
2024-02-02T10:07:50.766Z,81.82
2024-02-02T10:10:26.501Z,81.68
2024-02-02T10:12:58.900Z,81.27
2024-02-02T10:15:43.741Z,80.88
2024-02-02T10:18:34.454Z,80.36
2024-02-02T10:21:12.019Z,80.39
2024-02-02T10:24:12.116Z,80.96
2024-02-02T10:26:54.237Z,81.51
2024-02-02T10:29:28.518Z,82.38
2024-02-02T10:32:29.485Z,82.73
2024-02-02T10:35:01.838Z,81.04
2024-02-02T10:37:31.161Z,79.42
2024-02-02T10:40:20.167Z,78.04
2024-02-02T10:43:09.008Z,75.96
2024-02-02T10:45:45.895Z,74.97
2024-02-02T10:48:37.388Z,73.59
2024-02-02T10:51:07.232Z,74.10
2024-02-02T10:53:46.094Z,72.81
2024-02-02T10:56:29.310Z,71.14
2024-02-02T10:59:23.905Z,71.55
2024-02-02T11:02:13.867Z,70.99
2024-02-02T11:04:59.276Z,69.58
2024-02-02T11:07:29.764Z,70.85
2024-02-02T11:10:00.746Z,70.95
2024-02-02T11:12:58.724Z,70.13
2024-02-02T11:15:46.476Z,70.30
2024-02-02T11:18:25.311Z,70.60
2024-02-02T11:21:13.435Z,70.21
2024-02-02T11:23:47.034Z,70.50
2024-02-02T11:26:41.686Z,70.14
2024-02-02T11:29:20.837Z,70.88
2024-02-02T11:32:24.324Z,70.73
2024-02-02T11:34:59.977Z,70.86
2024-02-02T11:37:49.831Z,70.89
2024-02-02T11:40:21.662Z,70.95
2024-02-02T11:42:50.993Z,71.24
2024-02-02T11:45:22.519Z,71.29
2024-02-02T11:47:58.282Z,71.00
2024-02-02T11:50:30.449Z,71.55
2024-02-02T11:53:11.791Z,71.48
2024-02-02T11:55:42.030Z,71.41
2024-02-02T11:58:12.624Z,71.46
2024-02-02T12:00:39.525Z,71.50
2024-02-02T12:03:37.341Z,71.35
2024-02-02T12:06:13.058Z,71.37
2024-02-02T12:08:44.310Z,71.74
2024-02-02T12:11:15.810Z,71.82
2024-02-02T12:13:45.969Z,72.22
2024-02-02T12:16:12.756Z,72.11
2024-02-02T12:18:39.696Z,72.58
2024-02-02T12:21:13.673Z,72.21
2024-02-02T12:23:40.570Z,72.40
2024-02-02T12:26:08.135Z,72.31
2024-02-02T12:28:34.883Z,72.76
2024-02-02T12:31:02.022Z,72.55
2024-02-02T12:33:28.971Z,72.79
2024-02-02T12:36:00.477Z,72.64
2024-02-02T12:38:27.796Z,72.63
2024-02-02T12:40:54.513Z,73.52
2024-02-02T12:43:25.551Z,73.05
2024-02-02T12:45:55.630Z,73.46
2024-02-02T12:48:22.695Z,73.55
2024-02-02T12:50:52.246Z,73.16
2024-02-02T12:53:21.167Z,73.22
2024-02-02T12:55:48.223Z,72.97
2024-02-02T12:58:14.987Z,72.80
2024-02-02T13:00:44.664Z,73.03
2024-02-02T13:03:13.835Z,72.81
2024-02-02T13:05:53.118Z,72.69
2024-02-02T13:08:36.366Z,72.24
2024-02-02T13:11:03.276Z,72.53
2024-02-02T13:13:30.000Z,72.56
2024-02-02T13:15:56.998Z,72.79
2024-02-02T13:18:26.733Z,72.53
2024-02-02T13:20:55.961Z,72.64
2024-02-02T13:23:30.270Z,72.62
2024-02-02T13:26:02.058Z,72.90
2024-02-02T13:28:44.092Z,73.49
2024-02-02T13:31:13.940Z,73.53
2024-02-02T13:33:46.357Z,73.86
2024-02-02T13:36:18.087Z,74.04
2024-02-02T13:38:48.164Z,73.46
2024-02-02T13:41:20.356Z,73.73
2024-02-02T13:44:00.351Z,73.51
2024-02-02T13:46:27.475Z,73.18
2024-02-02T13:48:59.060Z,73.05
2024-02-02T13:51:30.841Z,72.88
2024-02-02T13:53:58.080Z,72.48
2024-02-02T13:56:29.700Z,72.54
2024-02-02T13:58:56.288Z,72.35
2024-02-02T14:01:26.379Z,72.54
2024-02-02T14:03:58.775Z,71.92
2024-02-02T14:06:26.157Z,71.86
2024-02-02T14:08:55.115Z,72.04
2024-02-02T14:11:32.689Z,71.50
2024-02-02T14:13:59.825Z,71.31
2024-02-02T14:16:32.770Z,71.47
2024-02-02T14:19:05.117Z,71.30
2024-02-02T14:21:33.798Z,71.53
2024-02-02T14:24:14.557Z,71.54
2024-02-02T14:26:54.229Z,71.18
2024-02-02T14:29:23.477Z,71.52
2024-02-02T14:31:58.141Z,70.86
2024-02-02T14:34:26.265Z,71.28
2024-02-02T14:36:53.697Z,70.98
2024-02-02T14:39:27.695Z,70.87
2024-02-02T14:41:55.191Z,70.86
2024-02-02T14:44:22.513Z,70.95
2024-02-02T14:46:49.760Z,70.71
2024-02-02T14:49:17.692Z,70.36
2024-02-02T14:51:44.849Z,70.75
2024-02-02T14:54:12.679Z,70.61
2024-02-02T14:56:39.706Z,70.99
2024-02-02T14:59:09.636Z,70.94
2024-02-02T15:01:37.742Z,70.77
2024-02-02T15:04:05.468Z,70.79
2024-02-02T15:06:34.632Z,71.15
2024-02-02T15:09:07.371Z,71.15
2024-02-02T15:11:34.150Z,71.00
2024-02-02T15:14:00.986Z,70.92
2024-02-02T15:16:31.370Z,70.83
2024-02-02T15:18:58.665Z,70.95
2024-02-02T15:21:25.578Z,71.20
2024-02-02T15:23:52.551Z,71.12
2024-02-02T15:26:20.466Z,71.09
2024-02-02T15:28:47.156Z,71.10
2024-02-02T15:31:13.837Z,71.31
2024-02-02T15:33:40.643Z,71.10
2024-02-02T15:36:07.965Z,71.10
2024-02-02T15:38:34.662Z,71.10
2024-02-02T15:41:09.678Z,71.48
2024-02-02T15:43:39.628Z,71.26
2024-02-02T15:46:06.580Z,71.76
2024-02-02T15:48:34.001Z,71.32
2024-02-02T15:51:00.951Z,71.76
2024-02-02T15:53:28.930Z,72.13
2024-02-02T15:55:55.723Z,71.82
2024-02-02T15:58:22.593Z,72.16
2024-02-02T16:00:49.612Z,72.27
2024-02-02T16:03:16.752Z,72.38
2024-02-02T16:05:44.218Z,72.70
2024-02-02T16:08:10.938Z,73.27
2024-02-02T16:10:37.646Z,72.93
2024-02-02T16:13:04.985Z,73.20
2024-02-02T16:15:31.717Z,73.36
2024-02-02T16:17:58.586Z,73.69
2024-02-02T16:20:25.279Z,74.11
2024-02-02T16:22:52.001Z,74.03
2024-02-02T16:25:19.697Z,74.04
2024-02-02T16:27:46.576Z,74.55
2024-02-02T16:30:14.578Z,74.26
2024-02-02T16:32:41.338Z,75.03
2024-02-02T16:35:09.257Z,75.28
2024-02-02T16:37:39.431Z,75.10
2024-02-02T16:40:10.461Z,75.49
2024-02-02T16:42:41.314Z,75.93
2024-02-02T16:45:09.096Z,75.82
2024-02-02T16:47:36.251Z,75.70
2024-02-02T16:50:03.814Z,76.50
2024-02-02T16:52:30.694Z,76.11
2024-02-02T16:54:57.423Z,76.15
2024-02-02T16:57:24.093Z,76.36
2024-02-02T16:59:50.964Z,76.74
2024-02-02T17:02:17.716Z,76.98
2024-02-02T17:04:44.423Z,76.81
2024-02-02T17:07:11.291Z,77.06
2024-02-02T17:09:41.300Z,76.95
2024-02-02T17:12:08.833Z,77.02
2024-02-02T17:14:35.556Z,77.12
2024-02-02T17:17:02.402Z,77.16
2024-02-02T17:19:29.485Z,77.07
2024-02-02T17:21:56.418Z,77.23
2024-02-02T17:24:23.159Z,77.17
2024-02-02T17:26:49.935Z,77.43
2024-02-02T17:29:18.287Z,77.16
2024-02-02T17:31:47.209Z,77.24
2024-02-02T17:34:14.644Z,77.41
2024-02-02T17:36:41.772Z,78.13
2024-02-02T17:39:08.649Z,77.67
2024-02-02T17:41:35.398Z,77.75
2024-02-02T17:44:02.523Z,78.03
2024-02-02T17:46:29.286Z,78.15
2024-02-02T17:48:56.061Z,78.52
2024-02-02T17:51:23.287Z,78.72
2024-02-02T17:53:50.154Z,78.41
2024-02-02T17:56:18.349Z,78.74
2024-02-02T17:58:45.363Z,78.74
2024-02-02T18:01:12.130Z,78.66
2024-02-02T18:03:38.943Z,78.49
2024-02-02T18:06:05.999Z,78.46
2024-02-02T18:08:37.281Z,78.29
2024-02-02T18:11:07.161Z,78.98
2024-02-02T18:13:34.069Z,78.41
2024-02-02T18:16:00.907Z,78.83
2024-02-02T18:18:27.726Z,79.07
2024-02-02T18:20:54.535Z,78.70
2024-02-02T18:23:21.258Z,79.01
2024-02-02T18:25:47.915Z,78.38
2024-02-02T18:28:16.178Z,78.40
2024-02-02T18:30:43.329Z,78.85
2024-02-02T18:33:10.266Z,78.75
2024-02-02T18:35:36.989Z,78.71
2024-02-02T18:38:03.869Z,78.82
2024-02-02T18:40:30.706Z,78.62
2024-02-02T18:42:57.805Z,79.40
2024-02-02T18:45:25.867Z,79.20
2024-02-02T18:47:52.707Z,78.84
2024-02-02T18:50:19.912Z,79.30
2024-02-02T18:52:47.841Z,78.99
2024-02-02T18:55:14.912Z,78.92
2024-02-02T18:57:41.616Z,79.45
2024-02-02T19:00:09.556Z,79.43
2024-02-02T19:02:36.356Z,79.25
2024-02-02T19:05:03.434Z,79.22
2024-02-02T19:07:32.445Z,79.29
2024-02-02T19:09:59.407Z,79.47
2024-02-02T19:12:26.195Z,79.17
2024-02-02T19:14:52.869Z,79.50
2024-02-02T19:17:19.549Z,79.67
2024-02-02T19:19:46.703Z,79.65
2024-02-02T19:22:13.599Z,78.90
2024-02-02T19:24:40.435Z,79.18
2024-02-02T19:27:07.237Z,79.38
2024-02-02T19:29:33.965Z,78.96
2024-02-02T19:32:00.624Z,79.62
2024-02-02T19:34:27.451Z,79.05
2024-02-02T19:36:54.377Z,79.15
2024-02-02T19:39:21.107Z,79.15
2024-02-02T19:41:47.796Z,79.22
2024-02-02T19:44:14.458Z,79.53
2024-02-02T19:46:41.146Z,79.80
2024-02-02T19:49:10.667Z,79.89
2024-02-02T19:51:39.111Z,79.30
2024-02-02T19:54:06.121Z,79.59
2024-02-02T19:56:32.829Z,79.44
2024-02-02T19:58:59.568Z,79.83
2024-02-02T20:01:27.016Z,80.04
2024-02-02T20:03:54.430Z,79.37
2024-02-02T20:06:21.629Z,80.01
2024-02-02T20:08:49.273Z,80.30
2024-02-02T20:11:21.026Z,80.34
2024-02-02T20:13:48.869Z,80.35
2024-02-02T20:16:17.931Z,80.48
2024-02-02T20:18:45.228Z,79.88
2024-02-02T20:21:16.050Z,80.52
2024-02-02T20:23:45.321Z,80.12
2024-02-02T20:26:18.033Z,80.17
2024-02-02T20:28:47.154Z,80.53
2024-02-02T20:31:14.551Z,80.71
2024-02-02T20:33:41.498Z,80.40
2024-02-02T20:36:08.998Z,80.74
2024-02-02T20:38:35.979Z,80.78
2024-02-02T20:41:09.509Z,81.14
2024-02-02T20:43:36.252Z,80.37
2024-02-02T20:46:03.718Z,80.94
2024-02-02T20:48:30.563Z,80.76
2024-02-02T20:50:57.364Z,81.14
2024-02-02T20:53:24.201Z,80.65
2024-02-02T20:55:50.861Z,81.43
2024-02-02T20:58:17.651Z,80.87
2024-02-02T21:00:44.508Z,81.02
2024-02-02T21:03:11.678Z,81.73
2024-02-02T21:05:38.857Z,81.54
2024-02-02T21:08:06.091Z,81.37
2024-02-02T21:10:32.768Z,81.11
2024-02-02T21:12:59.537Z,81.65
2024-02-02T21:15:30.071Z,81.30
2024-02-02T21:17:58.228Z,81.86
2024-02-02T21:20:32.111Z,80.90
2024-02-02T21:22:59.067Z,81.95
2024-02-02T21:25:25.836Z,81.48
2024-02-02T21:27:52.670Z,81.60
2024-02-02T21:30:19.478Z,81.30
2024-02-02T21:32:46.645Z,81.80
2024-02-02T21:35:14.220Z,81.31
2024-02-02T21:37:41.038Z,81.38
2024-02-02T21:40:08.039Z,81.46
2024-02-02T21:42:34.902Z,82.15
2024-02-02T21:45:01.589Z,81.64
2024-02-02T21:47:28.351Z,81.83
2024-02-02T21:49:55.093Z,82.19
2024-02-02T21:52:21.954Z,82.41
2024-02-02T21:54:49.097Z,82.22
2024-02-02T21:57:15.847Z,82.26
2024-02-02T21:59:42.528Z,82.51
2024-02-02T22:02:09.185Z,82.37
2024-02-02T22:04:35.918Z,82.86
2024-02-02T22:07:04.908Z,82.92
2024-02-02T22:09:31.854Z,82.35
2024-02-02T22:11:58.766Z,83.27
2024-02-02T22:14:25.722Z,82.84
2024-02-02T22:16:52.467Z,82.98
2024-02-02T22:19:19.250Z,83.19
2024-02-02T22:21:47.187Z,83.61
2024-02-02T22:24:14.054Z,83.66
2024-02-02T22:26:41.126Z,83.69
2024-02-02T22:29:07.783Z,83.42
2024-02-02T22:31:35.458Z,82.96
2024-02-02T22:34:02.988Z,83.81
2024-02-02T22:36:31.319Z,83.12
2024-02-02T22:38:58.039Z,83.68
2024-02-02T22:41:33.104Z,83.79
2024-02-02T22:44:02.367Z,83.26
2024-02-02T22:46:32.974Z,84.44
2024-02-02T22:49:01.133Z,83.53
2024-02-02T22:51:28.145Z,83.90
2024-02-02T22:53:54.915Z,84.30
2024-02-02T22:56:21.618Z,83.78
2024-02-02T22:58:48.328Z,83.77
2024-02-02T23:01:15.296Z,83.98
2024-02-02T23:03:42.212Z,84.23
2024-02-02T23:06:09.071Z,84.43
2024-02-02T23:08:35.943Z,83.85
2024-02-02T23:11:02.793Z,84.53
2024-02-02T23:13:29.527Z,84.10
2024-02-02T23:15:59.427Z,83.89
2024-02-02T23:18:27.784Z,84.38
2024-02-02T23:20:59.481Z,84.21
2024-02-02T23:23:26.578Z,85.33
2024-02-02T23:25:53.294Z,84.35
2024-02-02T23:28:20.059Z,84.01
2024-02-02T23:30:47.288Z,84.67
2024-02-02T23:33:14.806Z,84.43
2024-02-02T23:35:44.350Z,84.75
2024-02-02T23:38:11.100Z,84.75
2024-02-02T23:40:37.856Z,84.78
2024-02-02T23:43:04.804Z,85.03
2024-02-02T23:45:32.039Z,85.14
2024-02-02T23:47:58.972Z,84.55
2024-02-02T23:50:25.720Z,85.23
2024-02-02T23:52:52.424Z,84.58
2024-02-02T23:55:20.305Z,85.02
2024-02-02T23:57:47.544Z,85.02
